sensor_id;sensor_type;location;lat;lon;timestamp;P1;durP1;ratioP1;P2;durP2;ratioP2
13708;SDS011;54933;51.908;7.730;2023-06-14T00:02:09;1.97;;;1.87;;
13708;SDS011;54933;51.908;7.730;2023-06-14T00:04:34;3.10;;;1.77;;
13708;SDS011;54933;51.908;7.730;2023-06-14T00:07:00;3.37;;;1.83;;
13708;SDS011;54933;51.908;7.730;2023-06-14T00:09:26;3.70;;;2.00;;
13708;SDS011;54933;51.908;7.730;2023-06-14T00:11:52;3.60;;;1.93;;
13708;SDS011;54933;51.908;7.730;2023-06-14T00:14:17;2.93;;;1.93;;
13708;SDS011;54933;51.908;7.730;2023-06-14T00:16:43;1.70;;;1.60;;
13708;SDS011;54933;51.908;7.730;2023-06-14T00:19:08;14.73;;;2.30;;
13708;SDS011;54933;51.908;7.730;2023-06-14T00:21:35;3.33;;;2.00;;
13708;SDS011;54933;51.908;7.730;2023-06-14T00:24:01;1.93;;;1.50;;
13708;SDS011;54933;51.908;7.730;2023-06-14T00:26:27;1.97;;;1.80;;
13708;SDS011;54933;51.908;7.730;2023-06-14T00:28:53;2.17;;;1.77;;
13708;SDS011;54933;51.908;7.730;2023-06-14T00:31:19;5.40;;;2.53;;
13708;SDS011;54933;51.908;7.730;2023-06-14T00:33:44;1.73;;;1.63;;
13708;SDS011;54933;51.908;7.730;2023-06-14T00:36:10;3.27;;;1.97;;
13708;SDS011;54933;51.908;7.730;2023-06-14T00:38:35;1.53;;;1.43;;
13708;SDS011;54933;51.908;7.730;2023-06-14T00:41:00;3.73;;;1.93;;
13708;SDS011;54933;51.908;7.730;2023-06-14T00:43:26;3.13;;;1.77;;
13708;SDS011;54933;51.908;7.730;2023-06-14T00:45:51;2.23;;;1.90;;
13708;SDS011;54933;51.908;7.730;2023-06-14T00:48:17;2.47;;;1.70;;
13708;SDS011;54933;51.908;7.730;2023-06-14T00:50:42;3.50;;;1.53;;
13708;SDS011;54933;51.908;7.730;2023-06-14T00:53:10;1.73;;;1.63;;
13708;SDS011;54933;51.908;7.730;2023-06-14T00:55:37;3.47;;;2.00;;
13708;SDS011;54933;51.908;7.730;2023-06-14T00:58:02;2.83;;;1.70;;
13708;SDS011;54933;51.908;7.730;2023-06-14T01:00:27;1.70;;;1.60;;
13708;SDS011;54933;51.908;7.730;2023-06-14T01:02:53;1.50;;;1.40;;
13708;SDS011;54933;51.908;7.730;2023-06-14T01:05:18;2.37;;;1.60;;
13708;SDS011;54933;51.908;7.730;2023-06-14T01:13:14;1.53;;;1.43;;
13708;SDS011;54933;51.908;7.730;2023-06-14T01:15:45;1.50;;;1.40;;
13708;SDS011;54933;51.908;7.730;2023-06-14T01:18:12;4.13;;;1.93;;
13708;SDS011;54933;51.908;7.730;2023-06-14T01:20:42;1.70;;;1.60;;
13708;SDS011;54933;51.908;7.730;2023-06-14T01:23:10;1.80;;;1.50;;
13708;SDS011;54933;51.908;7.730;2023-06-14T01:25:39;7.10;;;1.87;;
13708;SDS011;54933;51.908;7.730;2023-06-14T01:28:06;3.37;;;1.70;;
13708;SDS011;54933;51.908;7.730;2023-06-14T01:30:36;1.53;;;1.43;;
13708;SDS011;54933;51.908;7.730;2023-06-14T01:33:03;2.23;;;1.63;;
13708;SDS011;54933;51.908;7.730;2023-06-14T01:35:29;1.67;;;1.57;;
13708;SDS011;54933;51.908;7.730;2023-06-14T01:37:55;6.07;;;1.80;;
13708;SDS011;54933;51.908;7.730;2023-06-14T01:40:21;1.70;;;1.43;;
13708;SDS011;54933;51.908;7.730;2023-06-14T01:42:47;8.77;;;1.70;;
13708;SDS011;54933;51.908;7.730;2023-06-14T01:45:15;2.27;;;1.30;;
13708;SDS011;54933;51.908;7.730;2023-06-14T01:47:41;1.60;;;1.50;;
13708;SDS011;54933;51.908;7.730;2023-06-14T01:50:07;1.33;;;1.30;;
13708;SDS011;54933;51.908;7.730;2023-06-14T01:52:32;1.83;;;1.30;;
13708;SDS011;54933;51.908;7.730;2023-06-14T01:54:58;3.47;;;1.40;;
13708;SDS011;54933;51.908;7.730;2023-06-14T01:57:23;1.60;;;1.50;;
13708;SDS011;54933;51.908;7.730;2023-06-14T01:59:51;1.63;;;1.53;;
13708;SDS011;54933;51.908;7.730;2023-06-14T02:02:17;2.17;;;1.57;;
13708;SDS011;54933;51.908;7.730;2023-06-14T02:04:42;3.67;;;1.30;;
13708;SDS011;54933;51.908;7.730;2023-06-14T02:07:07;2.70;;;1.50;;
13708;SDS011;54933;51.908;7.730;2023-06-14T02:09:33;1.30;;;1.30;;
13708;SDS011;54933;51.908;7.730;2023-06-14T02:12:00;1.53;;;1.43;;
13708;SDS011;54933;51.908;7.730;2023-06-14T02:14:25;1.60;;;1.50;;
13708;SDS011;54933;51.908;7.730;2023-06-14T02:16:51;1.50;;;1.40;;
13708;SDS011;54933;51.908;7.730;2023-06-14T02:19:18;1.70;;;1.60;;
13708;SDS011;54933;51.908;7.730;2023-06-14T02:21:44;1.47;;;1.37;;
13708;SDS011;54933;51.908;7.730;2023-06-14T02:24:10;2.40;;;1.40;;
13708;SDS011;54933;51.908;7.730;2023-06-14T02:26:35;2.00;;;1.50;;
13708;SDS011;54933;51.908;7.730;2023-06-14T02:29:03;1.80;;;1.70;;
13708;SDS011;54933;51.908;7.730;2023-06-14T02:31:28;3.90;;;1.40;;
13708;SDS011;54933;51.908;7.730;2023-06-14T02:33:54;2.20;;;1.60;;
13708;SDS011;54933;51.908;7.730;2023-06-14T02:36:20;1.40;;;1.30;;
13708;SDS011;54933;51.908;7.730;2023-06-14T02:38:45;1.93;;;1.57;;
13708;SDS011;54933;51.908;7.730;2023-06-14T02:41:11;3.47;;;1.73;;
13708;SDS011;54933;51.908;7.730;2023-06-14T02:43:37;2.50;;;1.33;;
13708;SDS011;54933;51.908;7.730;2023-06-14T02:46:02;1.43;;;1.33;;
13708;SDS011;54933;51.908;7.730;2023-06-14T02:48:28;1.43;;;1.30;;
13708;SDS011;54933;51.908;7.730;2023-06-14T02:50:54;1.50;;;1.40;;
13708;SDS011;54933;51.908;7.730;2023-06-14T02:53:21;1.40;;;1.30;;
13708;SDS011;54933;51.908;7.730;2023-06-14T02:55:46;2.07;;;1.30;;
13708;SDS011;54933;51.908;7.730;2023-06-14T02:58:13;2.13;;;1.27;;
13708;SDS011;54933;51.908;7.730;2023-06-14T03:00:38;2.67;;;1.67;;
13708;SDS011;54933;51.908;7.730;2023-06-14T03:03:05;1.43;;;1.37;;
13708;SDS011;54933;51.908;7.730;2023-06-14T03:05:38;1.67;;;1.57;;
13708;SDS011;54933;51.908;7.730;2023-06-14T03:08:05;2.50;;;1.33;;
13708;SDS011;54933;51.908;7.730;2023-06-14T03:10:32;1.47;;;1.37;;
13708;SDS011;54933;51.908;7.730;2023-06-14T03:12:57;3.70;;;1.63;;
13708;SDS011;54933;51.908;7.730;2023-06-14T03:15:22;2.43;;;1.37;;
13708;SDS011;54933;51.908;7.730;2023-06-14T03:17:49;1.70;;;1.60;;
13708;SDS011;54933;51.908;7.730;2023-06-14T03:20:15;1.73;;;1.50;;
13708;SDS011;54933;51.908;7.730;2023-06-14T03:22:41;1.50;;;1.40;;
13708;SDS011;54933;51.908;7.730;2023-06-14T03:25:06;1.93;;;1.53;;
13708;SDS011;54933;51.908;7.730;2023-06-14T03:27:32;1.10;;;1.00;;
13708;SDS011;54933;51.908;7.730;2023-06-14T03:29:57;1.87;;;1.47;;
13708;SDS011;54933;51.908;7.730;2023-06-14T03:32:22;1.63;;;1.40;;
13708;SDS011;54933;51.908;7.730;2023-06-14T03:34:48;3.10;;;1.40;;
13708;SDS011;54933;51.908;7.730;2023-06-14T03:37:13;3.80;;;1.47;;
13708;SDS011;54933;51.908;7.730;2023-06-14T03:39:38;2.07;;;1.73;;
13708;SDS011;54933;51.908;7.730;2023-06-14T03:42:11;1.77;;;1.67;;
13708;SDS011;54933;51.908;7.730;2023-06-14T03:44:36;3.40;;;1.27;;
13708;SDS011;54933;51.908;7.730;2023-06-14T03:47:01;1.60;;;1.50;;
13708;SDS011;54933;51.908;7.730;2023-06-14T03:49:26;1.80;;;1.40;;
13708;SDS011;54933;51.908;7.730;2023-06-14T03:51:52;2.97;;;1.40;;
13708;SDS011;54933;51.908;7.730;2023-06-14T03:54:17;1.90;;;1.50;;
13708;SDS011;54933;51.908;7.730;2023-06-14T03:56:42;1.53;;;1.43;;
13708;SDS011;54933;51.908;7.730;2023-06-14T03:59:07;3.87;;;2.80;;
13708;SDS011;54933;51.908;7.730;2023-06-14T04:01:33;2.00;;;1.50;;
13708;SDS011;54933;51.908;7.730;2023-06-14T04:03:58;1.43;;;1.33;;
13708;SDS011;54933;51.908;7.730;2023-06-14T04:06:24;1.30;;;1.20;;
13708;SDS011;54933;51.908;7.730;2023-06-14T04:08:57;2.60;;;1.47;;
13708;SDS011;54933;51.908;7.730;2023-06-14T04:11:26;1.27;;;1.27;;
13708;SDS011;54933;51.908;7.730;2023-06-14T04:13:51;1.33;;;1.23;;
13708;SDS011;54933;51.908;7.730;2023-06-14T04:16:18;1.30;;;1.17;;
13708;SDS011;54933;51.908;7.730;2023-06-14T04:18:44;1.40;;;1.30;;
13708;SDS011;54933;51.908;7.730;2023-06-14T04:21:11;1.60;;;1.37;;
13708;SDS011;54933;51.908;7.730;2023-06-14T04:23:37;3.63;;;1.30;;
13708;SDS011;54933;51.908;7.730;2023-06-14T04:26:03;1.37;;;1.30;;
13708;SDS011;54933;51.908;7.730;2023-06-14T04:28:28;1.30;;;1.20;;
13708;SDS011;54933;51.908;7.730;2023-06-14T04:30:53;1.30;;;1.20;;
13708;SDS011;54933;51.908;7.730;2023-06-14T04:33:19;1.10;;;1.10;;
13708;SDS011;54933;51.908;7.730;2023-06-14T04:35:44;2.30;;;1.43;;
13708;SDS011;54933;51.908;7.730;2023-06-14T04:38:12;1.33;;;1.10;;
13708;SDS011;54933;51.908;7.730;2023-06-14T04:40:37;1.37;;;1.27;;
13708;SDS011;54933;51.908;7.730;2023-06-14T04:43:07;3.83;;;1.40;;
13708;SDS011;54933;51.908;7.730;2023-06-14T04:45:33;1.43;;;1.33;;
13708;SDS011;54933;51.908;7.730;2023-06-14T04:47:59;1.67;;;1.40;;
13708;SDS011;54933;51.908;7.730;2023-06-14T04:50:24;1.23;;;1.13;;
13708;SDS011;54933;51.908;7.730;2023-06-14T04:52:50;2.03;;;1.40;;
13708;SDS011;54933;51.908;7.730;2023-06-14T04:55:16;3.03;;;1.60;;
13708;SDS011;54933;51.908;7.730;2023-06-14T04:57:42;1.50;;;1.40;;
13708;SDS011;54933;51.908;7.730;2023-06-14T05:00:07;1.37;;;1.20;;
13708;SDS011;54933;51.908;7.730;2023-06-14T05:02:35;1.53;;;1.43;;
13708;SDS011;54933;51.908;7.730;2023-06-14T05:05:02;2.50;;;1.23;;
13708;SDS011;54933;51.908;7.730;2023-06-14T05:07:29;1.40;;;1.30;;
13708;SDS011;54933;51.908;7.730;2023-06-14T05:09:55;1.10;;;1.00;;
13708;SDS011;54933;51.908;7.730;2023-06-14T05:12:20;1.87;;;1.03;;
13708;SDS011;54933;51.908;7.730;2023-06-14T05:14:45;1.30;;;1.10;;
13708;SDS011;54933;51.908;7.730;2023-06-14T05:17:11;1.07;;;1.00;;
13708;SDS011;54933;51.908;7.730;2023-06-14T05:19:36;0.93;;;0.93;;
13708;SDS011;54933;51.908;7.730;2023-06-14T05:22:01;3.20;;;1.13;;
13708;SDS011;54933;51.908;7.730;2023-06-14T05:24:27;1.13;;;1.03;;
13708;SDS011;54933;51.908;7.730;2023-06-14T05:26:55;7.57;;;1.30;;
13708;SDS011;54933;51.908;7.730;2023-06-14T05:29:20;6.37;;;1.27;;
13708;SDS011;54933;51.908;7.730;2023-06-14T05:31:46;9.87;;;1.30;;
13708;SDS011;54933;51.908;7.730;2023-06-14T05:34:11;1.43;;;1.33;;
13708;SDS011;54933;51.908;7.730;2023-06-14T05:36:36;34.30;;;3.03;;
13708;SDS011;54933;51.908;7.730;2023-06-14T05:39:02;18.90;;;2.40;;
13708;SDS011;54933;51.908;7.730;2023-06-14T05:41:28;24.73;;;2.07;;
13708;SDS011;54933;51.908;7.730;2023-06-14T05:43:53;14.87;;;2.03;;
13708;SDS011;54933;51.908;7.730;2023-06-14T05:46:19;15.97;;;2.13;;
13708;SDS011;54933;51.908;7.730;2023-06-14T05:48:47;5.70;;;1.90;;
13708;SDS011;54933;51.908;7.730;2023-06-14T05:51:13;12.50;;;1.70;;
13708;SDS011;54933;51.908;7.730;2023-06-14T05:53:38;9.57;;;1.73;;
13708;SDS011;54933;51.908;7.730;2023-06-14T05:56:03;12.87;;;1.87;;
13708;SDS011;54933;51.908;7.730;2023-06-14T05:58:29;7.43;;;1.70;;
13708;SDS011;54933;51.908;7.730;2023-06-14T06:00:54;3.83;;;1.33;;
13708;SDS011;54933;51.908;7.730;2023-06-14T06:03:19;15.07;;;2.10;;
13708;SDS011;54933;51.908;7.730;2023-06-14T06:05:45;8.27;;;2.13;;
13708;SDS011;54933;51.908;7.730;2023-06-14T06:08:11;6.30;;;2.10;;
13708;SDS011;54933;51.908;7.730;2023-06-14T06:10:36;4.57;;;1.53;;
13708;SDS011;54933;51.908;7.730;2023-06-14T06:13:01;10.97;;;2.07;;
13708;SDS011;54933;51.908;7.730;2023-06-14T06:15:27;3.20;;;1.10;;
13708;SDS011;54933;51.908;7.730;2023-06-14T06:17:52;6.33;;;1.60;;
13708;SDS011;54933;51.908;7.730;2023-06-14T06:20:17;6.97;;;1.20;;
13708;SDS011;54933;51.908;7.730;2023-06-14T06:22:43;2.10;;;1.40;;
13708;SDS011;54933;51.908;7.730;2023-06-14T06:25:08;3.80;;;1.03;;
13708;SDS011;54933;51.908;7.730;2023-06-14T06:27:35;3.10;;;1.80;;
13708;SDS011;54933;51.908;7.730;2023-06-14T06:30:02;11.33;;;1.30;;
13708;SDS011;54933;51.908;7.730;2023-06-14T06:32:28;5.13;;;1.40;;
13708;SDS011;54933;51.908;7.730;2023-06-14T06:34:53;5.40;;;1.23;;
13708;SDS011;54933;51.908;7.730;2023-06-14T06:37:18;4.60;;;0.97;;
13708;SDS011;54933;51.908;7.730;2023-06-14T06:39:44;3.97;;;1.40;;
13708;SDS011;54933;51.908;7.730;2023-06-14T06:42:09;4.83;;;1.07;;
13708;SDS011;54933;51.908;7.730;2023-06-14T06:44:35;2.43;;;1.47;;
13708;SDS011;54933;51.908;7.730;2023-06-14T06:47:01;3.80;;;1.13;;
13708;SDS011;54933;51.908;7.730;2023-06-14T06:49:27;1.73;;;1.20;;
13708;SDS011;54933;51.908;7.730;2023-06-14T06:52:25;8.17;;;2.03;;
13708;SDS011;54933;51.908;7.730;2023-06-14T06:54:44;1.90;;;1.00;;
13708;SDS011;54933;51.908;7.730;2023-06-14T06:57:09;3.67;;;0.90;;
13708;SDS011;54933;51.908;7.730;2023-06-14T06:59:36;8.57;;;1.43;;
13708;SDS011;54933;51.908;7.730;2023-06-14T07:02:01;3.20;;;1.10;;
13708;SDS011;54933;51.908;7.730;2023-06-14T07:04:27;4.03;;;1.00;;
13708;SDS011;54933;51.908;7.730;2023-06-14T07:06:52;2.43;;;1.10;;
13708;SDS011;54933;51.908;7.730;2023-06-14T07:09:17;1.03;;;1.03;;
13708;SDS011;54933;51.908;7.730;2023-06-14T07:11:45;4.77;;;1.10;;
13708;SDS011;54933;51.908;7.730;2023-06-14T07:14:11;1.80;;;1.10;;
13708;SDS011;54933;51.908;7.730;2023-06-14T07:16:36;1.87;;;1.13;;
13708;SDS011;54933;51.908;7.730;2023-06-14T07:19:03;4.67;;;1.20;;
13708;SDS011;54933;51.908;7.730;2023-06-14T07:21:28;2.13;;;1.10;;
13708;SDS011;54933;51.908;7.730;2023-06-14T07:23:54;1.90;;;1.10;;
13708;SDS011;54933;51.908;7.730;2023-06-14T07:26:20;4.90;;;1.00;;
13708;SDS011;54933;51.908;7.730;2023-06-14T07:28:46;2.00;;;1.20;;
13708;SDS011;54933;51.908;7.730;2023-06-14T07:31:12;1.57;;;1.30;;
13708;SDS011;54933;51.908;7.730;2023-06-14T07:33:38;4.27;;;0.97;;
13708;SDS011;54933;51.908;7.730;2023-06-14T07:36:03;3.60;;;1.20;;
13708;SDS011;54933;51.908;7.730;2023-06-14T07:38:29;5.00;;;1.00;;
13708;SDS011;54933;51.908;7.730;2023-06-14T07:40:54;3.20;;;0.90;;
13708;SDS011;54933;51.908;7.730;2023-06-14T07:43:19;3.73;;;1.07;;
13708;SDS011;54933;51.908;7.730;2023-06-14T07:45:44;0.67;;;0.67;;
13708;SDS011;54933;51.908;7.730;2023-06-14T07:48:10;2.77;;;0.87;;
13708;SDS011;54933;51.908;7.730;2023-06-14T07:50:36;0.80;;;0.70;;
13708;SDS011;54933;51.908;7.730;2023-06-14T07:53:01;2.97;;;1.00;;
13708;SDS011;54933;51.908;7.730;2023-06-14T07:55:26;1.10;;;0.93;;
13708;SDS011;54933;51.908;7.730;2023-06-14T07:57:53;2.80;;;0.90;;
13708;SDS011;54933;51.908;7.730;2023-06-14T08:00:18;1.10;;;0.80;;
13708;SDS011;54933;51.908;7.730;2023-06-14T08:02:45;4.30;;;0.90;;
13708;SDS011;54933;51.908;7.730;2023-06-14T08:05:11;1.17;;;1.00;;
13708;SDS011;54933;51.908;7.730;2023-06-14T08:07:37;3.00;;;0.87;;
13708;SDS011;54933;51.908;7.730;2023-06-14T08:10:03;0.77;;;0.77;;
13708;SDS011;54933;51.908;7.730;2023-06-14T08:12:30;0.80;;;0.80;;
13708;SDS011;54933;51.908;7.730;2023-06-14T08:14:55;1.10;;;1.00;;
13708;SDS011;54933;51.908;7.730;2023-06-14T08:17:21;0.70;;;0.70;;
13708;SDS011;54933;51.908;7.730;2023-06-14T08:19:46;1.60;;;0.70;;
13708;SDS011;54933;51.908;7.730;2023-06-14T08:22:11;0.70;;;0.70;;
13708;SDS011;54933;51.908;7.730;2023-06-14T08:24:37;1.43;;;0.80;;
13708;SDS011;54933;51.908;7.730;2023-06-14T08:27:03;0.80;;;0.80;;
13708;SDS011;54933;51.908;7.730;2023-06-14T08:29:28;1.07;;;0.77;;
13708;SDS011;54933;51.908;7.730;2023-06-14T08:31:55;1.07;;;0.73;;
13708;SDS011;54933;51.908;7.730;2023-06-14T08:34:20;0.63;;;0.50;;
13708;SDS011;54933;51.908;7.730;2023-06-14T08:36:46;2.00;;;0.90;;
13708;SDS011;54933;51.908;7.730;2023-06-14T08:39:11;1.30;;;0.80;;
13708;SDS011;54933;51.908;7.730;2023-06-14T08:41:36;1.07;;;0.50;;
13708;SDS011;54933;51.908;7.730;2023-06-14T08:44:02;1.00;;;0.90;;
13708;SDS011;54933;51.908;7.730;2023-06-14T08:46:29;1.63;;;0.90;;
13708;SDS011;54933;51.908;7.730;2023-06-14T08:48:58;0.90;;;0.90;;
13708;SDS011;54933;51.908;7.730;2023-06-14T08:51:25;1.37;;;0.83;;
13708;SDS011;54933;51.908;7.730;2023-06-14T08:53:59;0.97;;;0.80;;
13708;SDS011;54933;51.908;7.730;2023-06-14T08:56:26;0.67;;;0.67;;
13708;SDS011;54933;51.908;7.730;2023-06-14T08:58:54;0.97;;;0.73;;
13708;SDS011;54933;51.908;7.730;2023-06-14T09:01:21;1.40;;;0.90;;
13708;SDS011;54933;51.908;7.730;2023-06-14T09:03:48;1.27;;;0.63;;
13708;SDS011;54933;51.908;7.730;2023-06-14T09:06:14;1.73;;;0.87;;
13708;SDS011;54933;51.908;7.730;2023-06-14T09:08:43;0.90;;;0.77;;
13708;SDS011;54933;51.908;7.730;2023-06-14T09:11:13;1.43;;;0.60;;
13708;SDS011;54933;51.908;7.730;2023-06-14T09:13:40;0.90;;;0.90;;
13708;SDS011;54933;51.908;7.730;2023-06-14T09:16:06;1.27;;;0.80;;
13708;SDS011;54933;51.908;7.730;2023-06-14T09:18:39;0.93;;;0.90;;
13708;SDS011;54933;51.908;7.730;2023-06-14T09:21:09;17.97;;;1.60;;
13708;SDS011;54933;51.908;7.730;2023-06-14T09:23:36;3.73;;;1.20;;
13708;SDS011;54933;51.908;7.730;2023-06-14T09:26:08;14.80;;;1.30;;
13708;SDS011;54933;51.908;7.730;2023-06-14T09:28:41;2.87;;;0.90;;
13708;SDS011;54933;51.908;7.730;2023-06-14T09:31:09;9.70;;;1.13;;
13708;SDS011;54933;51.908;7.730;2023-06-14T09:33:36;5.57;;;1.00;;
13708;SDS011;54933;51.908;7.730;2023-06-14T09:36:01;4.87;;;1.50;;
13708;SDS011;54933;51.908;7.730;2023-06-14T09:38:27;11.77;;;1.40;;
13708;SDS011;54933;51.908;7.730;2023-06-14T09:40:52;6.97;;;1.93;;
13708;SDS011;54933;51.908;7.730;2023-06-14T09:43:17;2.73;;;1.37;;
13708;SDS011;54933;51.908;7.730;2023-06-14T09:45:44;3.33;;;1.20;;
13708;SDS011;54933;51.908;7.730;2023-06-14T09:48:13;2.30;;;0.97;;
13708;SDS011;54933;51.908;7.730;2023-06-14T09:50:42;1.67;;;1.10;;
13708;SDS011;54933;51.908;7.730;2023-06-14T09:53:11;2.03;;;0.90;;
13708;SDS011;54933;51.908;7.730;2023-06-14T09:55:37;4.30;;;0.90;;
13708;SDS011;54933;51.908;7.730;2023-06-14T09:58:05;10.70;;;1.07;;
13708;SDS011;54933;51.908;7.730;2023-06-14T10:00:32;4.53;;;0.90;;
13708;SDS011;54933;51.908;7.730;2023-06-14T10:03:00;5.63;;;1.37;;
13708;SDS011;54933;51.908;7.730;2023-06-14T10:05:32;2.30;;;0.90;;
13708;SDS011;54933;51.908;7.730;2023-06-14T10:08:05;2.37;;;1.07;;
13708;SDS011;54933;51.908;7.730;2023-06-14T10:10:33;21.60;;;2.17;;
13708;SDS011;54933;51.908;7.730;2023-06-14T10:12:59;5.13;;;1.27;;
13708;SDS011;54933;51.908;7.730;2023-06-14T10:15:37;11.03;;;1.33;;
13708;SDS011;54933;51.908;7.730;2023-06-14T10:18:13;7.87;;;1.60;;
13708;SDS011;54933;51.908;7.730;2023-06-14T10:21:04;8.20;;;1.20;;
13708;SDS011;54933;51.908;7.730;2023-06-14T10:23:40;6.40;;;1.53;;
13708;SDS011;54933;51.908;7.730;2023-06-14T10:26:07;5.63;;;1.00;;
13708;SDS011;54933;51.908;7.730;2023-06-14T10:28:33;6.80;;;1.23;;
13708;SDS011;54933;51.908;7.730;2023-06-14T10:31:09;6.13;;;1.00;;
13708;SDS011;54933;51.908;7.730;2023-06-14T10:33:39;18.20;;;2.00;;
13708;SDS011;54933;51.908;7.730;2023-06-14T10:39:00;18.17;;;1.73;;
13708;SDS011;54933;51.908;7.730;2023-06-14T10:41:26;12.50;;;1.90;;
13708;SDS011;54933;51.908;7.730;2023-06-14T10:44:02;7.33;;;2.10;;
13708;SDS011;54933;51.908;7.730;2023-06-14T10:46:55;11.10;;;1.40;;
13708;SDS011;54933;51.908;7.730;2023-06-14T10:52:27;5.90;;;1.17;;
13708;SDS011;54933;51.908;7.730;2023-06-14T10:57:26;8.00;;;1.10;;
13708;SDS011;54933;51.908;7.730;2023-06-14T10:59:52;5.37;;;0.90;;
13708;SDS011;54933;51.908;7.730;2023-06-14T11:05:16;6.17;;;0.73;;
13708;SDS011;54933;51.908;7.730;2023-06-14T11:10:39;6.13;;;1.50;;
13708;SDS011;54933;51.908;7.730;2023-06-14T11:13:06;4.17;;;1.23;;
13708;SDS011;54933;51.908;7.730;2023-06-14T11:15:33;4.73;;;0.73;;
13708;SDS011;54933;51.908;7.730;2023-06-14T11:18:06;5.23;;;0.80;;
13708;SDS011;54933;51.908;7.730;2023-06-14T11:20:33;9.87;;;1.77;;
13708;SDS011;54933;51.908;7.730;2023-06-14T11:23:00;3.77;;;1.20;;
13708;SDS011;54933;51.908;7.730;2023-06-14T11:25:26;4.63;;;0.87;;
13708;SDS011;54933;51.908;7.730;2023-06-14T11:27:53;1.50;;;0.60;;
13708;SDS011;54933;51.908;7.730;2023-06-14T11:30:20;5.90;;;0.90;;
13708;SDS011;54933;51.908;7.730;2023-06-14T11:32:46;0.77;;;0.60;;
13708;SDS011;54933;51.908;7.730;2023-06-14T11:35:12;2.43;;;0.70;;
13708;SDS011;54933;51.908;7.730;2023-06-14T11:37:39;7.03;;;0.80;;
13708;SDS011;54933;51.908;7.730;2023-06-14T11:40:06;5.63;;;1.53;;
13708;SDS011;54933;51.908;7.730;2023-06-14T11:42:33;5.23;;;0.87;;
13708;SDS011;54933;51.908;7.730;2023-06-14T11:44:59;1.57;;;0.80;;
13708;SDS011;54933;51.908;7.730;2023-06-14T11:47:24;4.90;;;1.00;;
13708;SDS011;54933;51.908;7.730;2023-06-14T11:49:50;4.93;;;0.83;;
13708;SDS011;54933;51.908;7.730;2023-06-14T11:52:16;3.73;;;0.83;;
13708;SDS011;54933;51.908;7.730;2023-06-14T11:54:41;1.47;;;0.50;;
13708;SDS011;54933;51.908;7.730;2023-06-14T11:57:07;1.50;;;0.50;;
13708;SDS011;54933;51.908;7.730;2023-06-14T11:59:37;0.90;;;0.90;;
13708;SDS011;54933;51.908;7.730;2023-06-14T12:02:04;0.77;;;0.70;;
13708;SDS011;54933;51.908;7.730;2023-06-14T12:04:30;1.03;;;0.50;;
13708;SDS011;54933;51.908;7.730;2023-06-14T12:06:56;1.53;;;0.90;;
13708;SDS011;54933;51.908;7.730;2023-06-14T12:09:22;1.23;;;0.60;;
13708;SDS011;54933;51.908;7.730;2023-06-14T12:11:49;1.23;;;0.40;;
13708;SDS011;54933;51.908;7.730;2023-06-14T12:14:15;0.77;;;0.60;;
13708;SDS011;54933;51.908;7.730;2023-06-14T12:16:41;0.60;;;0.60;;
13708;SDS011;54933;51.908;7.730;2023-06-14T12:19:16;3.47;;;0.70;;
13708;SDS011;54933;51.908;7.730;2023-06-14T12:21:42;0.83;;;0.60;;
13708;SDS011;54933;51.908;7.730;2023-06-14T12:24:12;0.50;;;0.50;;
13708;SDS011;54933;51.908;7.730;2023-06-14T12:26:38;1.83;;;0.90;;
13708;SDS011;54933;51.908;7.730;2023-06-14T12:29:05;18.27;;;2.20;;
13708;SDS011;54933;51.908;7.730;2023-06-14T12:31:32;33.77;;;5.73;;
13708;SDS011;54933;51.908;7.730;2023-06-14T12:33:57;30.63;;;4.40;;
13708;SDS011;54933;51.908;7.730;2023-06-14T12:36:22;31.83;;;3.63;;
13708;SDS011;54933;51.908;7.730;2023-06-14T12:38:48;36.53;;;3.60;;
13708;SDS011;54933;51.908;7.730;2023-06-14T12:41:13;33.17;;;3.73;;
13708;SDS011;54933;51.908;7.730;2023-06-14T12:43:39;21.77;;;2.33;;
13708;SDS011;54933;51.908;7.730;2023-06-14T12:46:04;27.10;;;3.03;;
13708;SDS011;54933;51.908;7.730;2023-06-14T12:48:30;19.27;;;2.77;;
13708;SDS011;54933;51.908;7.730;2023-06-14T12:50:56;19.17;;;2.77;;
13708;SDS011;54933;51.908;7.730;2023-06-14T12:53:21;15.43;;;2.47;;
13708;SDS011;54933;51.908;7.730;2023-06-14T12:55:48;11.07;;;1.93;;
13708;SDS011;54933;51.908;7.730;2023-06-14T12:58:13;14.00;;;2.00;;
13708;SDS011;54933;51.908;7.730;2023-06-14T13:00:39;5.13;;;1.93;;
13708;SDS011;54933;51.908;7.730;2023-06-14T13:03:04;22.00;;;3.77;;
13708;SDS011;54933;51.908;7.730;2023-06-14T13:05:30;10.67;;;1.87;;
13708;SDS011;54933;51.908;7.730;2023-06-14T13:07:58;14.53;;;1.73;;
13708;SDS011;54933;51.908;7.730;2023-06-14T13:10:23;10.20;;;2.17;;
13708;SDS011;54933;51.908;7.730;2023-06-14T13:12:49;19.07;;;2.40;;
13708;SDS011;54933;51.908;7.730;2023-06-14T13:15:14;10.20;;;1.60;;
13708;SDS011;54933;51.908;7.730;2023-06-14T13:17:40;10.63;;;1.80;;
13708;SDS011;54933;51.908;7.730;2023-06-14T13:20:07;14.17;;;2.90;;
13708;SDS011;54933;51.908;7.730;2023-06-14T13:22:36;6.23;;;1.90;;
13708;SDS011;54933;51.908;7.730;2023-06-14T13:25:01;8.77;;;1.60;;
13708;SDS011;54933;51.908;7.730;2023-06-14T13:27:28;4.57;;;1.50;;
13708;SDS011;54933;51.908;7.730;2023-06-14T13:29:53;11.00;;;1.40;;
13708;SDS011;54933;51.908;7.730;2023-06-14T13:32:20;3.87;;;1.20;;
13708;SDS011;54933;51.908;7.730;2023-06-14T13:34:46;8.87;;;1.40;;
13708;SDS011;54933;51.908;7.730;2023-06-14T13:37:12;8.57;;;1.40;;
13708;SDS011;54933;51.908;7.730;2023-06-14T13:39:37;13.27;;;1.37;;
13708;SDS011;54933;51.908;7.730;2023-06-14T13:42:02;5.37;;;2.00;;
13708;SDS011;54933;51.908;7.730;2023-06-14T13:44:28;10.57;;;1.63;;
13708;SDS011;54933;51.908;7.730;2023-06-14T13:46:53;4.73;;;0.93;;
13708;SDS011;54933;51.908;7.730;2023-06-14T13:49:19;9.00;;;1.50;;
13708;SDS011;54933;51.908;7.730;2023-06-14T13:51:44;5.60;;;1.60;;
13708;SDS011;54933;51.908;7.730;2023-06-14T13:54:12;3.40;;;1.10;;
13708;SDS011;54933;51.908;7.730;2023-06-14T13:56:37;4.37;;;0.90;;
13708;SDS011;54933;51.908;7.730;2023-06-14T13:59:03;2.80;;;1.10;;
13708;SDS011;54933;51.908;7.730;2023-06-14T14:01:28;1.63;;;1.10;;
13708;SDS011;54933;51.908;7.730;2023-06-14T14:03:54;4.47;;;0.80;;
13708;SDS011;54933;51.908;7.730;2023-06-14T14:06:19;1.27;;;0.83;;
13708;SDS011;54933;51.908;7.730;2023-06-14T14:08:45;3.90;;;1.00;;
13708;SDS011;54933;51.908;7.730;2023-06-14T14:11:10;2.53;;;1.00;;
13708;SDS011;54933;51.908;7.730;2023-06-14T14:13:36;7.97;;;1.10;;
13708;SDS011;54933;51.908;7.730;2023-06-14T14:16:01;2.90;;;1.10;;
13708;SDS011;54933;51.908;7.730;2023-06-14T14:18:28;5.63;;;1.30;;
13708;SDS011;54933;51.908;7.730;2023-06-14T14:20:53;3.30;;;1.17;;
13708;SDS011;54933;51.908;7.730;2023-06-14T14:23:18;4.17;;;1.10;;
13708;SDS011;54933;51.908;7.730;2023-06-14T14:25:45;2.70;;;0.80;;
13708;SDS011;54933;51.908;7.730;2023-06-14T14:28:10;1.03;;;1.00;;
13708;SDS011;54933;51.908;7.730;2023-06-14T14:30:36;2.50;;;1.00;;
13708;SDS011;54933;51.908;7.730;2023-06-14T14:33:04;0.93;;;0.73;;
13708;SDS011;54933;51.908;7.730;2023-06-14T14:35:30;1.27;;;0.83;;
13708;SDS011;54933;51.908;7.730;2023-06-14T14:37:55;2.77;;;1.10;;
13708;SDS011;54933;51.908;7.730;2023-06-14T14:40:21;2.87;;;1.10;;
13708;SDS011;54933;51.908;7.730;2023-06-14T14:42:46;1.77;;;0.67;;
13708;SDS011;54933;51.908;7.730;2023-06-14T14:45:11;3.93;;;0.80;;
13708;SDS011;54933;51.908;7.730;2023-06-14T14:47:37;0.63;;;0.63;;
13708;SDS011;54933;51.908;7.730;2023-06-14T14:50:02;1.23;;;1.10;;
13708;SDS011;54933;51.908;7.730;2023-06-14T14:52:27;2.00;;;0.80;;
13708;SDS011;54933;51.908;7.730;2023-06-14T14:54:53;1.00;;;0.83;;
13708;SDS011;54933;51.908;7.730;2023-06-14T14:57:18;2.47;;;0.93;;
13708;SDS011;54933;51.908;7.730;2023-06-14T14:59:44;0.80;;;0.80;;
13708;SDS011;54933;51.908;7.730;2023-06-14T15:02:09;1.10;;;0.67;;